sensor_id;sensor_type;location;lat;lon;timestamp;P1;durP1;ratioP1;P2;durP2;ratioP2
52674;SDS011;38569;52.722;6.440;2023-08-06T00:00:26;26.52;;;17.30;;
52674;SDS011;38569;52.722;6.440;2023-08-06T00:02:52;23.80;;;16.95;;
52674;SDS011;38569;52.722;6.440;2023-08-06T00:05:18;25.02;;;17.67;;
52674;SDS011;38569;52.722;6.440;2023-08-06T00:07:46;24.13;;;16.05;;
52674;SDS011;38569;52.722;6.440;2023-08-06T00:10:12;21.20;;;15.30;;
52674;SDS011;38569;52.722;6.440;2023-08-06T00:12:38;17.88;;;14.48;;
52674;SDS011;38569;52.722;6.440;2023-08-06T00:15:03;16.77;;;13.05;;
52674;SDS011;38569;52.722;6.440;2023-08-06T00:17:29;20.65;;;13.80;;
52674;SDS011;38569;52.722;6.440;2023-08-06T00:19:55;21.73;;;14.73;;
52674;SDS011;38569;52.722;6.440;2023-08-06T00:22:21;22.80;;;16.42;;
52674;SDS011;38569;52.722;6.440;2023-08-06T00:24:46;19.95;;;14.88;;
52674;SDS011;38569;52.722;6.440;2023-08-06T00:27:12;21.15;;;14.27;;
52674;SDS011;38569;52.722;6.440;2023-08-06T00:29:38;18.38;;;14.32;;
52674;SDS011;38569;52.722;6.440;2023-08-06T00:32:03;23.58;;;14.07;;
52674;SDS011;38569;52.722;6.440;2023-08-06T00:34:29;17.85;;;14.23;;
52674;SDS011;38569;52.722;6.440;2023-08-06T00:36:55;16.33;;;13.02;;
52674;SDS011;38569;52.722;6.440;2023-08-06T00:39:21;16.60;;;12.70;;
52674;SDS011;38569;52.722;6.440;2023-08-06T00:41:46;15.93;;;12.98;;
52674;SDS011;38569;52.722;6.440;2023-08-06T00:44:12;22.50;;;14.38;;
52674;SDS011;38569;52.722;6.440;2023-08-06T00:46:38;17.20;;;13.57;;
52674;SDS011;38569;52.722;6.440;2023-08-06T00:49:04;17.73;;;13.73;;
52674;SDS011;38569;52.722;6.440;2023-08-06T00:51:30;17.77;;;13.73;;
52674;SDS011;38569;52.722;6.440;2023-08-06T00:53:56;18.25;;;12.63;;
52674;SDS011;38569;52.722;6.440;2023-08-06T00:56:22;19.85;;;14.10;;
52674;SDS011;38569;52.722;6.440;2023-08-06T00:58:50;16.33;;;13.45;;
52674;SDS011;38569;52.722;6.440;2023-08-06T01:01:16;16.52;;;11.73;;
52674;SDS011;38569;52.722;6.440;2023-08-06T01:03:42;21.40;;;14.43;;
52674;SDS011;38569;52.722;6.440;2023-08-06T01:06:07;18.30;;;13.18;;
52674;SDS011;38569;52.722;6.440;2023-08-06T01:08:54;17.23;;;13.15;;
52674;SDS011;38569;52.722;6.440;2023-08-06T01:17:18;20.75;;;14.43;;
52674;SDS011;38569;52.722;6.440;2023-08-06T01:19:45;19.42;;;14.30;;
52674;SDS011;38569;52.722;6.440;2023-08-06T01:22:11;17.50;;;13.30;;
52674;SDS011;38569;52.722;6.440;2023-08-06T01:24:36;23.73;;;15.25;;
52674;SDS011;38569;52.722;6.440;2023-08-06T01:27:14;20.42;;;15.55;;
52674;SDS011;38569;52.722;6.440;2023-08-06T01:29:53;21.77;;;16.10;;
52674;SDS011;38569;52.722;6.440;2023-08-06T01:32:25;17.77;;;15.25;;
52674;SDS011;38569;52.722;6.440;2023-08-06T01:34:53;17.27;;;15.10;;
52674;SDS011;38569;52.722;6.440;2023-08-06T01:37:20;17.08;;;14.50;;
52674;SDS011;38569;52.722;6.440;2023-08-06T01:39:46;24.48;;;15.68;;
52674;SDS011;38569;52.722;6.440;2023-08-06T01:42:11;25.45;;;15.73;;
52674;SDS011;38569;52.722;6.440;2023-08-06T01:44:37;19.85;;;14.50;;
52674;SDS011;38569;52.722;6.440;2023-08-06T01:47:03;20.80;;;15.20;;
52674;SDS011;38569;52.722;6.440;2023-08-06T01:49:29;20.02;;;15.38;;
52674;SDS011;38569;52.722;6.440;2023-08-06T01:51:55;19.70;;;15.13;;
52674;SDS011;38569;52.722;6.440;2023-08-06T01:54:20;18.05;;;14.27;;
52674;SDS011;38569;52.722;6.440;2023-08-06T01:56:47;23.65;;;17.92;;
52674;SDS011;38569;52.722;6.440;2023-08-06T01:59:13;16.27;;;13.95;;
52674;SDS011;38569;52.722;6.440;2023-08-06T02:01:39;19.73;;;15.02;;
52674;SDS011;38569;52.722;6.440;2023-08-06T02:04:04;22.20;;;15.70;;
52674;SDS011;38569;52.722;6.440;2023-08-06T02:06:30;20.42;;;15.27;;
52674;SDS011;38569;52.722;6.440;2023-08-06T02:08:56;20.38;;;15.30;;
52674;SDS011;38569;52.722;6.440;2023-08-06T02:11:21;20.52;;;14.82;;
52674;SDS011;38569;52.722;6.440;2023-08-06T02:13:47;22.70;;;15.48;;
52674;SDS011;38569;52.722;6.440;2023-08-06T02:16:12;19.52;;;14.13;;
52674;SDS011;38569;52.722;6.440;2023-08-06T02:18:38;20.10;;;13.93;;
52674;SDS011;38569;52.722;6.440;2023-08-06T02:21:04;20.42;;;15.82;;
52674;SDS011;38569;52.722;6.440;2023-08-06T02:23:30;20.83;;;15.20;;
52674;SDS011;38569;52.722;6.440;2023-08-06T02:26:02;23.33;;;14.85;;
52674;SDS011;38569;52.722;6.440;2023-08-06T02:28:29;15.70;;;13.30;;
52674;SDS011;38569;52.722;6.440;2023-08-06T02:30:55;17.63;;;14.73;;
52674;SDS011;38569;52.722;6.440;2023-08-06T02:33:21;19.75;;;13.32;;
52674;SDS011;38569;52.722;6.440;2023-08-06T02:35:47;17.30;;;14.68;;
52674;SDS011;38569;52.722;6.440;2023-08-06T02:38:12;17.58;;;14.32;;
52674;SDS011;38569;52.722;6.440;2023-08-06T02:40:45;18.73;;;14.80;;
52674;SDS011;38569;52.722;6.440;2023-08-06T02:43:11;20.40;;;15.40;;
52674;SDS011;38569;52.722;6.440;2023-08-06T02:45:37;17.08;;;14.50;;
52674;SDS011;38569;52.722;6.440;2023-08-06T02:48:03;24.73;;;16.35;;
52674;SDS011;38569;52.722;6.440;2023-08-06T02:50:29;18.50;;;14.25;;
52674;SDS011;38569;52.722;6.440;2023-08-06T02:52:54;19.67;;;15.40;;
52674;SDS011;38569;52.722;6.440;2023-08-06T02:55:20;23.92;;;14.70;;
52674;SDS011;38569;52.722;6.440;2023-08-06T02:57:45;17.90;;;13.73;;
52674;SDS011;38569;52.722;6.440;2023-08-06T03:00:11;21.67;;;14.15;;
52674;SDS011;38569;52.722;6.440;2023-08-06T03:02:37;21.73;;;16.00;;
52674;SDS011;38569;52.722;6.440;2023-08-06T03:05:03;19.80;;;15.63;;
52674;SDS011;38569;52.722;6.440;2023-08-06T03:07:29;23.85;;;14.93;;
52674;SDS011;38569;52.722;6.440;2023-08-06T03:09:54;21.83;;;14.57;;
52674;SDS011;38569;52.722;6.440;2023-08-06T03:12:20;23.17;;;15.65;;
52674;SDS011;38569;52.722;6.440;2023-08-06T03:14:46;19.23;;;15.18;;
52674;SDS011;38569;52.722;6.440;2023-08-06T03:17:11;24.10;;;15.70;;
52674;SDS011;38569;52.722;6.440;2023-08-06T03:19:37;21.77;;;14.00;;
52674;SDS011;38569;52.722;6.440;2023-08-06T03:22:03;24.80;;;15.55;;
52674;SDS011;38569;52.722;6.440;2023-08-06T03:24:29;20.40;;;14.52;;
52674;SDS011;38569;52.722;6.440;2023-08-06T03:26:54;21.77;;;15.20;;
52674;SDS011;38569;52.722;6.440;2023-08-06T03:29:20;22.17;;;15.77;;
52674;SDS011;38569;52.722;6.440;2023-08-06T03:31:46;22.00;;;14.32;;
52674;SDS011;38569;52.722;6.440;2023-08-06T03:34:12;22.70;;;15.02;;
52674;SDS011;38569;52.722;6.440;2023-08-06T03:36:38;17.88;;;14.35;;
52674;SDS011;38569;52.722;6.440;2023-08-06T03:39:03;19.65;;;14.25;;
52674;SDS011;38569;52.722;6.440;2023-08-06T03:41:29;26.08;;;16.48;;
52674;SDS011;38569;52.722;6.440;2023-08-06T03:43:55;20.40;;;15.68;;
52674;SDS011;38569;52.722;6.440;2023-08-06T03:46:21;19.15;;;13.85;;
52674;SDS011;38569;52.722;6.440;2023-08-06T03:48:46;20.20;;;15.52;;
52674;SDS011;38569;52.722;6.440;2023-08-06T03:51:12;18.30;;;15.13;;
52674;SDS011;38569;52.722;6.440;2023-08-06T03:53:38;22.52;;;16.50;;
52674;SDS011;38569;52.722;6.440;2023-08-06T03:56:04;20.30;;;14.23;;
52674;SDS011;38569;52.722;6.440;2023-08-06T03:58:29;23.92;;;14.98;;
52674;SDS011;38569;52.722;6.440;2023-08-06T04:01:01;24.38;;;14.45;;
52674;SDS011;38569;52.722;6.440;2023-08-06T04:03:28;22.00;;;15.15;;
52674;SDS011;38569;52.722;6.440;2023-08-06T04:05:54;21.00;;;15.35;;
52674;SDS011;38569;52.722;6.440;2023-08-06T04:08:19;16.63;;;13.68;;
52674;SDS011;38569;52.722;6.440;2023-08-06T04:10:48;19.13;;;14.52;;
52674;SDS011;38569;52.722;6.440;2023-08-06T04:13:14;19.52;;;15.80;;
52674;SDS011;38569;52.722;6.440;2023-08-06T04:15:40;19.77;;;14.73;;
52674;SDS011;38569;52.722;6.440;2023-08-06T04:18:06;19.83;;;13.65;;
52674;SDS011;38569;52.722;6.440;2023-08-06T04:20:31;20.60;;;15.50;;
52674;SDS011;38569;52.722;6.440;2023-08-06T04:22:57;24.05;;;16.55;;
52674;SDS011;38569;52.722;6.440;2023-08-06T04:25:23;22.45;;;16.08;;
52674;SDS011;38569;52.722;6.440;2023-08-06T04:27:49;19.42;;;14.25;;
52674;SDS011;38569;52.722;6.440;2023-08-06T04:30:14;22.90;;;15.88;;
52674;SDS011;38569;52.722;6.440;2023-08-06T04:32:40;21.67;;;15.20;;
52674;SDS011;38569;52.722;6.440;2023-08-06T04:35:06;18.33;;;13.63;;
52674;SDS011;38569;52.722;6.440;2023-08-06T04:37:32;23.27;;;16.63;;
52674;SDS011;38569;52.722;6.440;2023-08-06T04:39:58;20.15;;;14.85;;
52674;SDS011;38569;52.722;6.440;2023-08-06T04:42:23;20.23;;;15.13;;
52674;SDS011;38569;52.722;6.440;2023-08-06T04:44:49;19.60;;;15.00;;
52674;SDS011;38569;52.722;6.440;2023-08-06T04:47:15;23.35;;;15.07;;
52674;SDS011;38569;52.722;6.440;2023-08-06T04:49:41;20.95;;;14.65;;
52674;SDS011;38569;52.722;6.440;2023-08-06T04:52:06;17.42;;;14.50;;
52674;SDS011;38569;52.722;6.440;2023-08-06T04:54:32;16.00;;;13.45;;
52674;SDS011;38569;52.722;6.440;2023-08-06T04:56:58;18.98;;;14.32;;
52674;SDS011;38569;52.722;6.440;2023-08-06T04:59:24;21.23;;;13.55;;
52674;SDS011;38569;52.722;6.440;2023-08-06T05:01:50;17.42;;;13.68;;
52674;SDS011;38569;52.722;6.440;2023-08-06T05:04:15;17.08;;;14.25;;
52674;SDS011;38569;52.722;6.440;2023-08-06T05:06:41;22.00;;;14.93;;
52674;SDS011;38569;52.722;6.440;2023-08-06T05:09:07;19.17;;;14.02;;
52674;SDS011;38569;52.722;6.440;2023-08-06T05:11:32;19.52;;;14.68;;
52674;SDS011;38569;52.722;6.440;2023-08-06T05:13:58;19.48;;;14.10;;
52674;SDS011;38569;52.722;6.440;2023-08-06T05:16:24;18.10;;;14.40;;
52674;SDS011;38569;52.722;6.440;2023-08-06T05:18:49;16.27;;;13.40;;
52674;SDS011;38569;52.722;6.440;2023-08-06T05:21:15;17.95;;;12.90;;
52674;SDS011;38569;52.722;6.440;2023-08-06T05:23:41;17.92;;;13.65;;
52674;SDS011;38569;52.722;6.440;2023-08-06T05:26:07;18.52;;;14.23;;
52674;SDS011;38569;52.722;6.440;2023-08-06T05:28:34;17.13;;;14.00;;
52674;SDS011;38569;52.722;6.440;2023-08-06T05:31:02;16.90;;;13.98;;
52674;SDS011;38569;52.722;6.440;2023-08-06T05:33:31;19.77;;;16.00;;
52674;SDS011;38569;52.722;6.440;2023-08-06T05:35:57;24.33;;;13.90;;
52674;SDS011;38569;52.722;6.440;2023-08-06T05:38:22;20.42;;;15.85;;
52674;SDS011;38569;52.722;6.440;2023-08-06T05:40:48;16.30;;;13.15;;
52674;SDS011;38569;52.722;6.440;2023-08-06T05:43:14;18.48;;;14.45;;
52674;SDS011;38569;52.722;6.440;2023-08-06T05:45:43;22.48;;;15.65;;
52674;SDS011;38569;52.722;6.440;2023-08-06T05:48:10;21.35;;;15.60;;
52674;SDS011;38569;52.722;6.440;2023-08-06T05:50:36;19.95;;;16.25;;
52674;SDS011;38569;52.722;6.440;2023-08-06T05:53:01;15.98;;;14.00;;
52674;SDS011;38569;52.722;6.440;2023-08-06T05:55:27;19.88;;;15.27;;
52674;SDS011;38569;52.722;6.440;2023-08-06T05:57:53;19.13;;;16.17;;
52674;SDS011;38569;52.722;6.440;2023-08-06T06:00:20;21.67;;;16.23;;
52674;SDS011;38569;52.722;6.440;2023-08-06T06:02:46;18.95;;;15.35;;
52674;SDS011;38569;52.722;6.440;2023-08-06T06:05:12;16.67;;;14.43;;
52674;SDS011;38569;52.722;6.440;2023-08-06T06:07:38;18.55;;;16.08;;
52674;SDS011;38569;52.722;6.440;2023-08-06T06:10:03;17.23;;;14.82;;
52674;SDS011;38569;52.722;6.440;2023-08-06T06:12:30;17.60;;;15.13;;
52674;SDS011;38569;52.722;6.440;2023-08-06T06:14:55;16.83;;;13.98;;
52674;SDS011;38569;52.722;6.440;2023-08-06T06:17:21;16.58;;;14.77;;
52674;SDS011;38569;52.722;6.440;2023-08-06T06:19:47;17.80;;;14.80;;
52674;SDS011;38569;52.722;6.440;2023-08-06T06:22:13;22.30;;;16.83;;
52674;SDS011;38569;52.722;6.440;2023-08-06T06:24:39;19.65;;;16.88;;
52674;SDS011;38569;52.722;6.440;2023-08-06T06:27:05;16.98;;;15.18;;
52674;SDS011;38569;52.722;6.440;2023-08-06T06:29:31;19.88;;;14.85;;
52674;SDS011;38569;52.722;6.440;2023-08-06T06:31:56;16.48;;;14.77;;
52674;SDS011;38569;52.722;6.440;2023-08-06T06:34:22;18.60;;;15.80;;
52674;SDS011;38569;52.722;6.440;2023-08-06T06:36:48;24.20;;;15.25;;
52674;SDS011;38569;52.722;6.440;2023-08-06T06:39:13;18.42;;;15.10;;
52674;SDS011;38569;52.722;6.440;2023-08-06T06:41:39;18.85;;;14.73;;
52674;SDS011;38569;52.722;6.440;2023-08-06T06:44:05;19.20;;;16.13;;
52674;SDS011;38569;52.722;6.440;2023-08-06T06:46:31;18.08;;;14.52;;
52674;SDS011;38569;52.722;6.440;2023-08-06T06:48:56;21.10;;;15.50;;
52674;SDS011;38569;52.722;6.440;2023-08-06T06:51:22;22.08;;;16.15;;
52674;SDS011;38569;52.722;6.440;2023-08-06T06:53:48;16.70;;;14.93;;
52674;SDS011;38569;52.722;6.440;2023-08-06T06:56:13;18.98;;;17.08;;
52674;SDS011;38569;52.722;6.440;2023-08-06T06:58:39;20.58;;;17.55;;
52674;SDS011;38569;52.722;6.440;2023-08-06T07:01:06;19.38;;;17.30;;
52674;SDS011;38569;52.722;6.440;2023-08-06T07:03:32;18.20;;;16.17;;
52674;SDS011;38569;52.722;6.440;2023-08-06T07:05:58;23.20;;;18.50;;
52674;SDS011;38569;52.722;6.440;2023-08-06T07:08:25;23.77;;;17.30;;
52674;SDS011;38569;52.722;6.440;2023-08-06T07:10:50;18.20;;;16.30;;
52674;SDS011;38569;52.722;6.440;2023-08-06T07:13:24;17.85;;;14.88;;
52674;SDS011;38569;52.722;6.440;2023-08-06T07:15:50;17.58;;;15.88;;
52674;SDS011;38569;52.722;6.440;2023-08-06T07:18:15;18.48;;;15.40;;
52674;SDS011;38569;52.722;6.440;2023-08-06T07:20:41;17.20;;;15.38;;
52674;SDS011;38569;52.722;6.440;2023-08-06T07:23:06;17.95;;;16.13;;
52674;SDS011;38569;52.722;6.440;2023-08-06T07:25:32;18.33;;;15.23;;
52674;SDS011;38569;52.722;6.440;2023-08-06T07:27:58;16.92;;;14.48;;
52674;SDS011;38569;52.722;6.440;2023-08-06T07:30:24;15.82;;;13.50;;
52674;SDS011;38569;52.722;6.440;2023-08-06T07:32:49;15.13;;;13.63;;
52674;SDS011;38569;52.722;6.440;2023-08-06T07:35:15;17.15;;;15.45;;
52674;SDS011;38569;52.722;6.440;2023-08-06T07:37:41;23.13;;;14.88;;
52674;SDS011;38569;52.722;6.440;2023-08-06T07:40:06;19.40;;;15.30;;
52674;SDS011;38569;52.722;6.440;2023-08-06T07:42:32;19.63;;;14.77;;
52674;SDS011;38569;52.722;6.440;2023-08-06T07:44:58;19.08;;;15.40;;
52674;SDS011;38569;52.722;6.440;2023-08-06T07:47:24;16.65;;;14.95;;
52674;SDS011;38569;52.722;6.440;2023-08-06T07:49:50;18.20;;;15.95;;
52674;SDS011;38569;52.722;6.440;2023-08-06T07:52:17;18.58;;;16.55;;
52674;SDS011;38569;52.722;6.440;2023-08-06T07:54:42;20.08;;;15.88;;
52674;SDS011;38569;52.722;6.440;2023-08-06T07:57:08;16.65;;;14.80;;
52674;SDS011;38569;52.722;6.440;2023-08-06T07:59:34;17.30;;;14.38;;
52674;SDS011;38569;52.722;6.440;2023-08-06T08:02:00;15.70;;;14.02;;
52674;SDS011;38569;52.722;6.440;2023-08-06T08:04:25;20.00;;;16.08;;
52674;SDS011;38569;52.722;6.440;2023-08-06T08:06:51;16.30;;;14.40;;
52674;SDS011;38569;52.722;6.440;2023-08-06T08:09:17;18.52;;;14.85;;
52674;SDS011;38569;52.722;6.440;2023-08-06T08:11:43;16.95;;;15.07;;
52674;SDS011;38569;52.722;6.440;2023-08-06T08:14:09;16.40;;;14.70;;
52674;SDS011;38569;52.722;6.440;2023-08-06T08:16:34;17.70;;;15.15;;
52674;SDS011;38569;52.722;6.440;2023-08-06T08:19:00;18.58;;;16.63;;
52674;SDS011;38569;52.722;6.440;2023-08-06T08:21:26;17.20;;;15.40;;
52674;SDS011;38569;52.722;6.440;2023-08-06T08:23:51;17.08;;;15.27;;
52674;SDS011;38569;52.722;6.440;2023-08-06T08:26:17;17.73;;;15.93;;
52674;SDS011;38569;52.722;6.440;2023-08-06T08:28:43;18.92;;;16.92;;
52674;SDS011;38569;52.722;6.440;2023-08-06T08:31:09;17.63;;;15.93;;
52674;SDS011;38569;52.722;6.440;2023-08-06T08:33:38;16.25;;;14.35;;
52674;SDS011;38569;52.722;6.440;2023-08-06T08:36:04;24.58;;;14.70;;
52674;SDS011;38569;52.722;6.440;2023-08-06T08:38:29;18.52;;;16.58;;
52674;SDS011;38569;52.722;6.440;2023-08-06T08:40:55;19.85;;;15.63;;
52674;SDS011;38569;52.722;6.440;2023-08-06T08:43:21;16.98;;;14.63;;
52674;SDS011;38569;52.722;6.440;2023-08-06T08:45:51;19.00;;;17.00;;
52674;SDS011;38569;52.722;6.440;2023-08-06T08:48:20;15.82;;;14.15;;
52674;SDS011;38569;52.722;6.440;2023-08-06T08:50:47;16.70;;;14.77;;
52674;SDS011;38569;52.722;6.440;2023-08-06T08:53:14;15.52;;;13.93;;
52674;SDS011;38569;52.722;6.440;2023-08-06T08:55:42;14.15;;;12.70;;
52674;SDS011;38569;52.722;6.440;2023-08-06T08:58:09;14.23;;;12.80;;
52674;SDS011;38569;52.722;6.440;2023-08-06T09:00:35;15.45;;;12.68;;
52674;SDS011;38569;52.722;6.440;2023-08-06T09:03:01;14.52;;;12.65;;
52674;SDS011;38569;52.722;6.440;2023-08-06T09:05:31;15.23;;;11.57;;
52674;SDS011;38569;52.722;6.440;2023-08-06T09:08:04;14.18;;;12.15;;
52674;SDS011;38569;52.722;6.440;2023-08-06T09:10:30;14.32;;;12.85;;
52674;SDS011;38569;52.722;6.440;2023-08-06T09:12:57;13.75;;;10.65;;
52674;SDS011;38569;52.722;6.440;2023-08-06T09:15:26;12.15;;;10.40;;
52674;SDS011;38569;52.722;6.440;2023-08-06T09:17:53;12.38;;;10.00;;
52674;SDS011;38569;52.722;6.440;2023-08-06T09:20:19;10.93;;;9.63;;
52674;SDS011;38569;52.722;6.440;2023-08-06T09:22:45;10.48;;;9.38;;
52674;SDS011;38569;52.722;6.440;2023-08-06T09:25:13;11.38;;;10.25;;
52674;SDS011;38569;52.722;6.440;2023-08-06T09:27:48;13.35;;;9.15;;
52674;SDS011;38569;52.722;6.440;2023-08-06T09:30:28;14.32;;;9.85;;
52674;SDS011;38569;52.722;6.440;2023-08-06T09:32:56;10.43;;;9.32;;
52674;SDS011;38569;52.722;6.440;2023-08-06T09:35:21;9.98;;;9.05;;
52674;SDS011;38569;52.722;6.440;2023-08-06T09:37:47;9.60;;;8.60;;
52674;SDS011;38569;52.722;6.440;2023-08-06T09:40:29;10.07;;;9.05;;
52674;SDS011;38569;52.722;6.440;2023-08-06T09:42:56;9.57;;;7.35;;
52674;SDS011;38569;52.722;6.440;2023-08-06T09:45:23;7.35;;;6.63;;
52674;SDS011;38569;52.722;6.440;2023-08-06T09:47:55;9.52;;;7.20;;
52674;SDS011;38569;52.722;6.440;2023-08-06T09:50:22;6.68;;;6.07;;
52674;SDS011;38569;52.722;6.440;2023-08-06T09:52:48;11.48;;;7.07;;
52674;SDS011;38569;52.722;6.440;2023-08-06T09:55:15;7.28;;;6.57;;
52674;SDS011;38569;52.722;6.440;2023-08-06T09:57:41;7.80;;;6.38;;
52674;SDS011;38569;52.722;6.440;2023-08-06T10:00:08;6.60;;;5.82;;
52674;SDS011;38569;52.722;6.440;2023-08-06T10:02:39;6.00;;;5.45;;
52674;SDS011;38569;52.722;6.440;2023-08-06T10:05:06;7.75;;;6.53;;
52674;SDS011;38569;52.722;6.440;2023-08-06T10:07:33;8.95;;;6.53;;
52674;SDS011;38569;52.722;6.440;2023-08-06T10:09:59;12.18;;;7.07;;
52674;SDS011;38569;52.722;6.440;2023-08-06T10:12:26;7.60;;;6.90;;
52674;SDS011;38569;52.722;6.440;2023-08-06T10:14:57;7.82;;;7.03;;
52674;SDS011;38569;52.722;6.440;2023-08-06T10:17:26;8.60;;;6.85;;
52674;SDS011;38569;52.722;6.440;2023-08-06T10:19:53;6.40;;;5.75;;
52674;SDS011;38569;52.722;6.440;2023-08-06T10:22:22;8.02;;;5.50;;
52674;SDS011;38569;52.722;6.440;2023-08-06T10:27:34;7.93;;;5.32;;
52674;SDS011;38569;52.722;6.440;2023-08-06T10:32:49;7.43;;;5.00;;
52674;SDS011;38569;52.722;6.440;2023-08-06T10:35:36;5.78;;;5.18;;
52674;SDS011;38569;52.722;6.440;2023-08-06T10:38:10;5.32;;;4.47;;
52674;SDS011;38569;52.722;6.440;2023-08-06T10:40:36;5.60;;;5.05;;
52674;SDS011;38569;52.722;6.440;2023-08-06T10:43:04;8.80;;;4.68;;
52674;SDS011;38569;52.722;6.440;2023-08-06T10:45:35;5.43;;;4.03;;
52674;SDS011;38569;52.722;6.440;2023-08-06T10:48:02;4.68;;;4.28;;
52674;SDS011;38569;52.722;6.440;2023-08-06T10:50:29;4.10;;;3.70;;
52674;SDS011;38569;52.722;6.440;2023-08-06T10:52:56;6.15;;;4.10;;
52674;SDS011;38569;52.722;6.440;2023-08-06T10:55:23;6.22;;;4.15;;
52674;SDS011;38569;52.722;6.440;2023-08-06T10:57:50;6.40;;;4.75;;
52674;SDS011;38569;52.722;6.440;2023-08-06T11:00:16;7.75;;;4.18;;
52674;SDS011;38569;52.722;6.440;2023-08-06T11:02:42;6.28;;;3.50;;
52674;SDS011;38569;52.722;6.440;2023-08-06T11:05:09;4.90;;;3.50;;
52674;SDS011;38569;52.722;6.440;2023-08-06T11:07:35;5.85;;;3.90;;
52674;SDS011;38569;52.722;6.440;2023-08-06T11:10:05;4.78;;;4.18;;
52674;SDS011;38569;52.722;6.440;2023-08-06T11:12:38;5.05;;;3.83;;
52674;SDS011;38569;52.722;6.440;2023-08-06T11:15:04;4.30;;;3.53;;
52674;SDS011;38569;52.722;6.440;2023-08-06T11:17:32;7.20;;;4.35;;
52674;SDS011;38569;52.722;6.440;2023-08-06T11:20:02;5.78;;;3.80;;
52674;SDS011;38569;52.722;6.440;2023-08-06T11:22:29;3.80;;;2.80;;
52674;SDS011;38569;52.722;6.440;2023-08-06T11:24:55;4.90;;;3.20;;
52674;SDS011;38569;52.722;6.440;2023-08-06T11:27:21;4.35;;;3.38;;
52674;SDS011;38569;52.722;6.440;2023-08-06T11:29:47;4.65;;;3.40;;
52674;SDS011;38569;52.722;6.440;2023-08-06T11:32:12;6.43;;;3.20;;
52674;SDS011;38569;52.722;6.440;2023-08-06T11:34:38;4.72;;;3.15;;
52674;SDS011;38569;52.722;6.440;2023-08-06T11:37:05;4.25;;;2.95;;
52674;SDS011;38569;52.722;6.440;2023-08-06T11:39:35;4.40;;;3.13;;
52674;SDS011;38569;52.722;6.440;2023-08-06T11:42:05;4.65;;;2.78;;
52674;SDS011;38569;52.722;6.440;2023-08-06T11:44:32;3.70;;;2.70;;
52674;SDS011;38569;52.722;6.440;2023-08-06T11:47:02;3.72;;;2.35;;
52674;SDS011;38569;52.722;6.440;2023-08-06T11:52:22;3.42;;;2.30;;
52674;SDS011;38569;52.722;6.440;2023-08-06T11:57:36;5.15;;;2.45;;
52674;SDS011;38569;52.722;6.440;2023-08-06T12:00:09;4.57;;;2.40;;
52674;SDS011;38569;52.722;6.440;2023-08-06T12:02:38;3.20;;;2.03;;
52674;SDS011;38569;52.722;6.440;2023-08-06T12:07:45;3.28;;;2.05;;
52674;SDS011;38569;52.722;6.440;2023-08-06T12:10:12;4.07;;;2.17;;
52674;SDS011;38569;52.722;6.440;2023-08-06T12:12:38;6.43;;;1.83;;
52674;SDS011;38569;52.722;6.440;2023-08-06T12:15:05;3.53;;;1.85;;
52674;SDS011;38569;52.722;6.440;2023-08-06T12:17:32;4.15;;;1.88;;
52674;SDS011;38569;52.722;6.440;2023-08-06T12:19:58;5.25;;;2.15;;
52674;SDS011;38569;52.722;6.440;2023-08-06T12:22:24;3.28;;;1.83;;
52674;SDS011;38569;52.722;6.440;2023-08-06T12:24:50;3.92;;;1.90;;
52674;SDS011;38569;52.722;6.440;2023-08-06T12:27:16;2.17;;;1.45;;
52674;SDS011;38569;52.722;6.440;2023-08-06T12:29:45;3.65;;;1.85;;
52674;SDS011;38569;52.722;6.440;2023-08-06T12:32:14;3.00;;;1.50;;
52674;SDS011;38569;52.722;6.440;2023-08-06T12:34:40;3.38;;;1.70;;
52674;SDS011;38569;52.722;6.440;2023-08-06T12:37:07;6.68;;;2.20;;
52674;SDS011;38569;52.722;6.440;2023-08-06T12:39:34;2.67;;;1.73;;
52674;SDS011;38569;52.722;6.440;2023-08-06T12:42:00;2.90;;;1.40;;
52674;SDS011;38569;52.722;6.440;2023-08-06T12:44:26;2.95;;;1.63;;
52674;SDS011;38569;52.722;6.440;2023-08-06T12:46:52;2.75;;;1.98;;
52674;SDS011;38569;52.722;6.440;2023-08-06T12:49:19;4.10;;;2.38;;
52674;SDS011;38569;52.722;6.440;2023-08-06T12:51:50;4.07;;;2.47;;
52674;SDS011;38569;52.722;6.440;2023-08-06T12:54:17;3.95;;;1.75;;
52674;SDS011;38569;52.722;6.440;2023-08-06T12:56:44;3.90;;;1.95;;
52674;SDS011;38569;52.722;6.440;2023-08-06T12:59:10;3.35;;;1.85;;
52674;SDS011;38569;52.722;6.440;2023-08-06T13:01:37;2.90;;;1.92;;
52674;SDS011;38569;52.722;6.440;2023-08-06T13:04:03;3.17;;;1.77;;
52674;SDS011;38569;52.722;6.440;2023-08-06T13:06:29;5.65;;;2.55;;
52674;SDS011;38569;52.722;6.440;2023-08-06T13:08:56;5.05;;;2.55;;
52674;SDS011;38569;52.722;6.440;2023-08-06T13:11:22;4.65;;;2.50;;
52674;SDS011;38569;52.722;6.440;2023-08-06T13:13:48;4.43;;;2.40;;
52674;SDS011;38569;52.722;6.440;2023-08-06T13:16:14;2.72;;;2.45;;
52674;SDS011;38569;52.722;6.440;2023-08-06T13:18:39;4.03;;;3.20;;
52674;SDS011;38569;52.722;6.440;2023-08-06T13:21:06;4.00;;;2.67;;
52674;SDS011;38569;52.722;6.440;2023-08-06T13:23:32;4.45;;;2.90;;
52674;SDS011;38569;52.722;6.440;2023-08-06T13:25:58;4.47;;;3.58;;
52674;SDS011;38569;52.722;6.440;2023-08-06T13:28:24;4.40;;;2.50;;
52674;SDS011;38569;52.722;6.440;2023-08-06T13:30:49;8.60;;;2.92;;
52674;SDS011;38569;52.722;6.440;2023-08-06T13:33:15;6.95;;;3.80;;
52674;SDS011;38569;52.722;6.440;2023-08-06T13:35:41;7.35;;;3.92;;
52674;SDS011;38569;52.722;6.440;2023-08-06T13:38:07;7.05;;;3.83;;
52674;SDS011;38569;52.722;6.440;2023-08-06T13:40:33;5.82;;;3.42;;
52674;SDS011;38569;52.722;6.440;2023-08-06T13:42:59;9.35;;;4.07;;
52674;SDS011;38569;52.722;6.440;2023-08-06T13:45:25;22.98;;;8.07;;
52674;SDS011;38569;52.722;6.440;2023-08-06T13:47:51;10.85;;;6.40;;
52674;SDS011;38569;52.722;6.440;2023-08-06T13:50:17;7.57;;;6.43;;
52674;SDS011;38569;52.722;6.440;2023-08-06T13:52:44;8.25;;;6.25;;
52674;SDS011;38569;52.722;6.440;2023-08-06T13:55:09;9.43;;;5.97;;
52674;SDS011;38569;52.722;6.440;2023-08-06T13:57:35;11.25;;;7.22;;
52674;SDS011;38569;52.722;6.440;2023-08-06T14:00:01;7.03;;;6.03;;
52674;SDS011;38569;52.722;6.440;2023-08-06T14:02:27;6.72;;;5.78;;
52674;SDS011;38569;52.722;6.440;2023-08-06T14:04:53;7.55;;;6.75;;
52674;SDS011;38569;52.722;6.440;2023-08-06T14:07:19;11.05;;;7.40;;
52674;SDS011;38569;52.722;6.440;2023-08-06T14:09:44;6.85;;;6.15;;
52674;SDS011;38569;52.722;6.440;2023-08-06T14:12:12;9.38;;;6.38;;
52674;SDS011;38569;52.722;6.440;2023-08-06T14:14:38;10.43;;;6.70;;
52674;SDS011;38569;52.722;6.440;2023-08-06T14:17:05;10.30;;;7.38;;
52674;SDS011;38569;52.722;6.440;2023-08-06T14:19:30;7.47;;;6.43;;
52674;SDS011;38569;52.722;6.440;2023-08-06T14:21:56;11.07;;;7.15;;
52674;SDS011;38569;52.722;6.440;2023-08-06T14:24:22;10.50;;;7.70;;
52674;SDS011;38569;52.722;6.440;2023-08-06T14:26:48;11.23;;;8.65;;
52674;SDS011;38569;52.722;6.440;2023-08-06T14:29:13;11.65;;;9.50;;
52674;SDS011;38569;52.722;6.440;2023-08-06T14:31:40;12.52;;;8.98;;
52674;SDS011;38569;52.722;6.440;2023-08-06T14:34:06;10.30;;;9.15;;
52674;SDS011;38569;52.722;6.440;2023-08-06T14:36:32;13.52;;;10.30;;
52674;SDS011;38569;52.722;6.440;2023-08-06T14:38:58;12.77;;;10.30;;
52674;SDS011;38569;52.722;6.440;2023-08-06T14:41:23;12.35;;;10.57;;
52674;SDS011;38569;52.722;6.440;2023-08-06T14:43:50;10.98;;;7.70;;
52674;SDS011;38569;52.722;6.440;2023-08-06T14:46:15;12.15;;;8.38;;